Time;durP1;ratioP1;P1;durP2;ratioP2;P2;SDS_P1;SDS_P2;PMS_P1;PMS_P2;Temp;Humidity;BMP_temperature;BMP_pressure;BME280_temperature;BME280_humidity;BME280_pressure;Samples;Min_cycle;Max_cycle;Signal;HPM_P1;HPM_P2
2023/11/04 00:00:32;;;;;;;10.38;2.75;;;;;;;7.46;100.00;97858.06;4969170;28;19914;-73
2023/11/04 00:02:58;;;;;;;15.77;2.63;;;;;;;7.50;100.00;97858.47;4969631;28;20033;-73
2023/11/04 00:05:23;;;;;;;9.63;2.10;;;;;;;7.41;100.00;97839.31;4970675;28;20031;-73
2023/11/04 00:07:48;;;;;;;12.27;2.53;;;;;;;7.45;100.00;97845.03;4969374;28;20075;-73
2023/11/04 00:10:14;;;;;;;5.67;2.17;;;;;;;7.55;100.00;97862.09;4970516;28;20123;-73
2023/11/04 00:12:39;;;;;;;9.63;3.05;;;;;;;7.54;100.00;97843.75;4969501;28;20058;-73
2023/11/04 00:15:06;;;;;;;9.95;3.28;;;;;;;7.38;100.00;97813.19;4970576;28;20538;-73
2023/11/04 00:17:31;;;;;;;8.63;2.20;;;;;;;7.47;100.00;97835.81;4952748;28;20042;-73
2023/11/04 00:19:57;;;;;;;12.55;3.65;;;;;;;7.52;100.00;97824.56;4970243;28;20027;-73
2023/11/04 00:22:22;;;;;;;11.70;2.63;;;;;;;7.49;100.00;97825.81;4969575;28;20023;-73
2023/11/04 00:24:52;;;;;;;8.00;2.40;;;;;;;7.40;100.00;97817.28;4969280;28;20034;-73
2023/11/04 00:27:21;;;;;;;11.95;2.78;;;;;;;7.45;100.00;97821.94;4985011;28;20034;-73
2023/11/04 00:29:47;;;;;;;14.35;3.85;;;;;;;7.47;100.00;97814.56;4969037;28;20029;-74
2023/11/04 00:32:14;;;;;;;13.73;1.90;;;;;;;7.54;100.00;97828.63;4969102;28;20030;-73
2023/11/04 00:34:41;;;;;;;16.00;4.22;;;;;;;7.50;100.00;97824.75;4969128;28;20126;-73
2023/11/04 00:37:07;;;;;;;12.65;3.00;;;;;;;7.45;100.00;97808.66;4984843;28;20487;-73
2023/11/04 00:39:32;;;;;;;14.98;3.50;;;;;;;7.47;100.00;97817.22;4968985;28;20065;-73
2023/11/04 00:41:58;;;;;;;13.63;3.67;;;;;;;7.54;100.00;97822.50;4952878;28;20515;-73
2023/11/04 00:44:23;;;;;;;15.67;3.57;;;;;;;7.46;100.00;97823.56;4968778;28;20093;-73
2023/11/04 00:46:49;;;;;;;16.13;2.92;;;;;;;7.45;100.00;97818.47;4965103;28;20077;-73
2023/11/04 00:49:14;;;;;;;11.07;2.53;;;;;;;7.48;100.00;97812.72;4967658;28;20030;-73
2023/11/04 00:51:39;;;;;;;17.00;2.77;;;;;;;7.38;100.00;97797.28;4952743;28;20484;-73
2023/11/04 00:54:05;;;;;;;9.10;2.90;;;;;;;7.39;100.00;97778.47;4984859;28;20119;-73
2023/11/04 00:56:33;;;;;;;;;;;;;;;7.50;100.00;97800.88;4985201;28;20035;-73
2023/11/04 00:58:58;;;;;;;8.95;3.03;;;;;;;7.50;100.00;97763.69;4984756;28;20368;-73
2023/11/04 01:01:23;;;;;;;9.80;2.70;;;;;;;7.48;100.00;97755.13;4984911;28;20127;-73
2023/11/04 01:03:49;;;;;;;9.77;3.20;;;;;;;7.56;100.00;97781.44;4968821;28;20035;-74
2023/11/04 01:06:14;;;;;;;14.93;3.25;;;;;;;7.52;100.00;97750.22;4968457;28;20049;-74
2023/11/04 01:08:40;;;;;;;12.87;2.73;;;;;;;7.45;100.00;97742.31;4969725;28;20045;-73
2023/11/04 01:11:05;;;;;;;13.53;2.73;;;;;;;7.47;100.00;97734.94;4968318;28;20034;-73
2023/11/04 01:13:30;;;;;;;12.50;2.23;;;;;;;7.32;100.00;97750.34;4968478;28;20034;-73
2023/11/04 01:15:56;;;;;;;7.87;2.20;;;;;;;7.42;100.00;97758.63;4968455;28;20058;-73
2023/11/04 01:18:22;;;;;;;9.23;1.90;;;;;;;7.38;100.00;97718.47;4951948;28;20031;-73
2023/11/04 01:20:47;;;;;;;13.77;3.85;;;;;;;7.39;100.00;97716.63;4968290;28;20046;-73
2023/11/04 01:23:13;;;;;;;29.73;4.07;;;;;;;7.46;100.00;97724.53;4967130;28;20035;-73
2023/11/04 01:25:38;;;;;;;11.63;2.38;;;;;;;7.45;100.00;97731.69;4969659;28;20165;-73
2023/11/04 01:28:04;;;;;;;9.93;1.90;;;;;;;7.33;100.00;97701.56;4967809;28;20035;-73
2023/11/04 01:30:30;;;;;;;6.82;2.50;;;;;;;7.28;100.00;97691.59;4967111;28;20445;-73
2023/11/04 01:32:55;;;;;;;11.10;2.83;;;;;;;7.28;100.00;97696.06;4969411;28;20031;-73
2023/11/04 01:35:20;;;;;;;11.18;2.20;;;;;;;7.32;100.00;97707.88;4968174;28;20399;-72
2023/11/04 01:37:46;;;;;;;8.80;2.43;;;;;;;7.26;100.00;97703.44;4983037;28;20092;-73
2023/11/04 01:40:12;;;;;;;17.70;3.93;;;;;;;7.28;100.00;97718.13;4966204;28;20053;-73
2023/11/04 01:42:44;;;;;;;12.55;3.60;;;;;;;7.20;100.00;97713.06;4951988;28;20498;-73
2023/11/04 01:45:10;;;;;;;11.60;3.03;;;;;;;7.24;100.00;97716.94;4969156;28;20038;-74
2023/11/04 01:47:40;;;;;;;13.20;2.33;;;;;;;7.04;100.00;97685.22;4967715;28;20029;-73
2023/11/04 01:50:06;;;;;;;8.35;3.85;;;;;;;7.03;100.00;97706.69;4967829;28;20053;-73
2023/11/04 01:52:31;;;;;;;8.02;2.00;;;;;;;7.05;100.00;97702.78;4969138;28;20018;-73
2023/11/04 01:54:58;;;;;;;14.02;3.22;;;;;;;7.07;100.00;97721.13;4967947;28;20042;-73
2023/11/04 01:57:24;;;;;;;10.30;2.42;;;;;;;6.95;100.00;97710.38;4956604;28;20023;-73
2023/11/04 01:59:50;;;;;;;6.30;2.42;;;;;;;7.05;100.00;97733.81;4963320;28;20030;-73
2023/11/04 02:02:17;;;;;;;10.32;2.70;;;;;;;6.92;100.00;97724.88;4967683;28;20030;-73
2023/11/04 02:04:43;;;;;;;13.68;2.38;;;;;;;6.81;100.00;97733.50;4951841;28;20038;-73
2023/11/04 02:07:08;;;;;;;13.13;3.17;;;;;;;6.92;100.00;97740.78;4967464;28;20427;-73
2023/11/04 02:09:33;;;;;;;12.67;3.10;;;;;;;6.85;100.00;97723.28;4967673;28;20650;-73
2023/11/04 02:11:59;;;;;;;7.57;2.38;;;;;;;6.90;100.00;97748.13;4968765;28;20558;-73
2023/11/04 02:14:24;;;;;;;12.13;3.58;;;;;;;6.87;100.00;97740.63;4966218;28;20026;-73
2023/11/04 02:16:52;;;;;;;7.10;2.30;;;;;;;6.83;100.00;97736.75;4967558;28;20034;-73
2023/11/04 02:19:17;;;;;;;11.18;3.17;;;;;;;6.92;100.00;97747.94;4967529;28;20038;-73
2023/11/04 02:21:43;;;;;;;13.07;3.15;;;;;;;6.83;100.00;97741.25;4967524;28;20015;-73
2023/11/04 02:24:09;;;;;;;7.53;3.00;;;;;;;6.83;100.00;97743.91;4967588;28;20050;-73
2023/11/04 02:26:34;;;;;;;10.57;2.83;;;;;;;6.92;100.00;97739.97;4967362;28;20027;-72
2023/11/04 02:29:00;;;;;;;8.23;2.28;;;;;;;6.94;100.00;97738.75;4976699;28;20039;-73
2023/11/04 02:31:26;;;;;;;9.95;2.88;;;;;;;6.79;100.00;97724.13;4975167;28;20030;-73
2023/11/04 02:33:51;;;;;;;13.90;3.17;;;;;;;6.85;100.00;97739.22;4983731;28;20038;-73
2023/11/04 02:36:17;;;;;;;6.70;2.83;;;;;;;6.79;100.00;97724.13;4967546;28;20030;-73
2023/11/04 02:38:42;;;;;;;9.63;2.90;;;;;;;6.80;100.00;97747.78;4967179;28;20042;-73
2023/11/04 02:41:07;;;;;;;9.73;2.00;;;;;;;6.89;100.00;97756.31;4985511;28;20077;-73
2023/11/04 02:43:33;;;;;;;10.73;3.67;;;;;;;6.75;100.00;97735.16;4971033;28;20305;-73
2023/11/04 02:45:58;;;;;;;20.03;3.60;;;;;;;6.78;100.00;97752.50;4951537;28;20268;-73
2023/11/04 02:48:24;;;;;;;9.63;2.73;;;;;;;6.64;100.00;97741.13;4970317;28;20088;-73
2023/11/04 02:50:50;;;;;;;9.20;2.47;;;;;;;6.82;100.00;97782.06;4954697;28;20035;-73
2023/11/04 02:53:15;;;;;;;10.88;2.88;;;;;;;6.65;100.00;97748.06;4986847;28;20050;-73
2023/11/04 02:55:41;;;;;;;12.33;4.77;;;;;;;6.67;100.00;97761.09;4970822;28;20027;-73
2023/11/04 02:58:06;;;;;;;10.38;2.65;;;;;;;6.72;100.00;97782.50;4970383;28;20537;-73
2023/11/04 03:00:31;;;;;;;12.30;3.00;;;;;;;6.69;100.00;97770.47;4986582;28;20084;-73
2023/11/04 03:02:57;;;;;;;7.27;2.30;;;;;;;6.69;100.00;97765.16;4970749;28;20285;-74
2023/11/04 03:05:22;;;;;;;6.97;2.60;;;;;;;6.73;100.00;97769.03;4970606;28;20031;-73
2023/11/04 03:07:47;;;;;;;4.27;2.50;;;;;;;6.67;100.00;97756.63;4970410;28;20029;-73
2023/11/04 03:10:13;;;;;;;12.33;2.93;;;;;;;6.65;100.00;97737.47;4970156;28;20092;-73
2023/11/04 03:12:38;;;;;;;5.55;2.40;;;;;;;6.58;100.00;97741.16;4970585;28;20503;-73
2023/11/04 03:15:05;;;;;;;9.83;2.57;;;;;;;6.61;100.00;97762.75;4986627;28;20039;-73
2023/11/04 03:17:31;;;;;;;7.70;2.67;;;;;;;6.63;100.00;97763.38;4970232;28;20766;-73
2023/11/04 03:19:56;;;;;;;11.45;2.90;;;;;;;6.65;100.00;97744.59;4970345;28;20023;-73
2023/11/04 03:22:21;;;;;;;8.10;3.03;;;;;;;6.63;100.00;97742.16;4971580;28;20160;-73
2023/11/04 03:24:47;;;;;;;7.43;2.70;;;;;;;6.59;100.00;97732.19;4986558;28;20046;-73
2023/11/04 03:27:12;;;;;;;8.20;3.20;;;;;;;6.60;100.00;97739.91;4971370;28;20106;-73
2023/11/04 03:29:38;;;;;;;12.10;3.10;;;;;;;6.50;100.00;97737.72;4986125;28;20041;-73
2023/11/04 03:32:05;;;;;;;;;;;;;;;6.50;100.00;97748.31;4983562;28;20057;-73
2023/11/04 03:34:30;;;;;;;8.80;2.92;;;;;;;6.42;100.00;97735.31;4971471;28;19975;-73
2023/11/04 03:36:56;;;;;;;7.13;3.53;;;;;;;6.55;100.00;97761.78;4986146;28;20433;-73
2023/11/04 03:39:21;;;;;;;8.53;3.17;;;;;;;6.51;100.00;97723.44;4971200;28;20400;-73
2023/11/04 03:41:46;;;;;;;5.63;2.40;;;;;;;6.59;100.00;97733.00;4986099;28;20291;-73
2023/11/04 03:44:12;;;;;;;11.00;3.47;;;;;;;6.52;100.00;97724.25;4953891;28;20088;-73
2023/11/04 03:46:37;;;;;;;9.63;3.05;;;;;;;6.36;100.00;97708.84;4966498;28;20077;-73
2023/11/04 03:49:04;;;;;;;6.23;2.77;;;;;;;6.43;100.00;97726.31;4967729;28;20106;-73
2023/11/04 03:51:30;;;;;;;11.38;3.90;;;;;;;6.40;100.00;97716.16;4985432;28;20442;-73
2023/11/04 03:53:55;;;;;;;9.07;3.47;;;;;;;6.38;100.00;97731.44;4981786;28;20023;-73
2023/11/04 03:56:21;;;;;;;15.57;4.43;;;;;;;6.37;100.00;97727.19;4985786;28;20510;-73
2023/11/04 03:58:46;;;;;;;12.03;2.80;;;;;;;6.36;100.00;97719.44;4969706;28;20035;-72
2023/11/04 04:01:12;;;;;;;7.60;2.60;;;;;;;6.32;100.00;97709.25;4985693;28;20039;-73
2023/11/04 04:03:38;;;;;;;14.52;3.22;;;;;;;6.27;100.00;97719.66;4971006;28;20039;-73
2023/11/04 04:06:04;;;;;;;21.25;3.70;;;;;;;6.29;100.00;97725.56;4970740;28;20053;-73
2023/11/04 04:08:29;;;;;;;10.60;2.92;;;;;;;6.30;100.00;97727.19;4985669;28;20042;-73
2023/11/04 04:10:55;;;;;;;8.25;3.50;;;;;;;6.25;100.00;97716.41;4953354;28;20023;-73
2023/11/04 04:13:20;;;;;;;7.00;2.80;;;;;;;6.16;100.00;97701.78;4969512;28;20039;-73
2023/11/04 04:15:46;;;;;;;8.83;2.23;;;;;;;6.28;100.00;97708.03;4969309;28;20085;-73
2023/11/04 04:18:11;;;;;;;6.50;2.87;;;;;;;6.17;100.00;97684.84;4970271;28;20281;-73
2023/11/04 04:20:37;;;;;;;11.65;2.65;;;;;;;6.36;100.00;97692.94;4969230;28;20091;-73
2023/11/04 04:23:02;;;;;;;4.40;2.70;;;;;;;6.26;100.00;97664.25;4969518;28;20240;-73
2023/11/04 04:25:28;;;;;;;12.00;3.65;;;;;;;6.23;100.00;97654.88;4985167;28;20079;-73
2023/11/04 04:27:53;;;;;;;8.63;3.30;;;;;;;6.23;100.00;97667.31;4954413;28;20035;-73
2023/11/04 04:30:19;;;;;;;8.48;2.78;;;;;;;6.19;100.00;97650.22;4968601;28;20045;-73
2023/11/04 04:32:46;;;;;;;9.60;3.10;;;;;;;6.25;100.00;97644.88;4970437;28;20475;-73
2023/11/04 04:35:11;;;;;;;8.02;2.90;;;;;;;6.19;100.00;97632.47;4970377;28;20034;-73
2023/11/04 04:37:38;;;;;;;7.13;3.00;;;;;;;6.08;100.00;97593.41;4985004;28;20050;-73
2023/11/04 04:40:05;;;;;;;21.75;4.85;;;;;;;6.18;100.00;97628.22;4970167;28;20282;-73
2023/11/04 04:42:31;;;;;;;11.02;4.47;;;;;;;6.02;100.00;97589.75;4962374;28;20033;-73
2023/11/04 04:44:56;;;;;;;9.90;3.15;;;;;;;6.06;100.00;97604.22;4969705;28;20019;-73
2023/11/04 04:47:21;;;;;;;10.20;2.47;;;;;;;6.06;100.00;97598.09;4969517;28;20096;-73
2023/11/04 04:49:47;;;;;;;7.70;2.70;;;;;;;6.13;100.00;97601.50;4983629;28;20030;-73
2023/11/04 04:52:13;;;;;;;8.40;2.60;;;;;;;6.10;100.00;97578.09;4976699;28;20376;-73
2023/11/04 04:54:38;;;;;;;13.75;3.42;;;;;;;5.96;100.00;97579.19;4985054;28;20475;-73
2023/11/04 04:57:04;;;;;;;8.17;3.03;;;;;;;6.02;100.00;97604.84;4968602;28;20058;-73
2023/11/04 04:59:29;;;;;;;7.78;2.50;;;;;;;6.04;100.00;97600.13;4984806;28;20042;-73
2023/11/04 05:01:56;;;;;;;11.67;2.33;;;;;;;6.03;100.00;97582.63;4984812;28;20125;-73
2023/11/04 05:04:22;;;;;;;5.65;2.42;;;;;;;5.97;100.00;97573.69;4968771;28;20285;-73
2023/11/04 05:06:47;;;;;;;6.18;3.30;;;;;;;5.97;100.00;97586.09;4952442;28;20073;-73
2023/11/04 05:09:12;;;;;;;5.37;2.03;;;;;;;5.95;100.00;97582.84;4952287;28;20058;-73
2023/11/04 05:11:38;;;;;;;7.20;2.37;;;;;;;5.98;100.00;97585.91;4952378;28;20035;-73
2023/11/04 05:14:03;;;;;;;9.03;3.30;;;;;;;5.86;100.00;97583.06;4984670;28;20056;-73
2023/11/04 05:16:29;;;;;;;8.43;2.47;;;;;;;5.93;100.00;97588.34;4968025;28;20117;-73
2023/11/04 05:18:55;;;;;;;6.97;3.30;;;;;;;5.85;100.00;97599.16;4969623;28;20094;-73
2023/11/04 05:21:24;;;;;;;6.68;2.58;;;;;;;5.74;100.00;97597.19;4968166;28;20035;-73
2023/11/04 05:23:50;;;;;;;6.25;2.45;;;;;;;5.70;100.00;97605.50;4984472;28;20407;-73
2023/11/04 05:26:16;;;;;;;7.40;2.83;;;;;;;5.65;100.00;97628.34;4984223;28;20088;-73
2023/11/04 05:28:41;;;;;;;4.28;2.72;;;;;;;5.64;100.00;97647.88;4977250;28;20113;-73
2023/11/04 05:31:10;;;;;;;12.43;4.25;;;;;;;5.46;100.00;97649.34;4969036;28;20248;-73
2023/11/04 05:33:36;;;;;;;17.77;2.53;;;;;;;5.40;100.00;97679.25;4977217;28;20023;-73
2023/11/04 05:36:02;;;;;;;11.15;4.00;;;;;;;5.45;100.00;97691.88;4968398;28;20095;-72
2023/11/04 05:38:28;;;;;;;8.73;2.60;;;;;;;5.30;100.00;97684.13;4951573;28;20035;-72
2023/11/04 05:40:54;;;;;;;8.05;2.80;;;;;;;5.23;100.00;97704.47;4968053;28;20023;-73
2023/11/04 05:43:19;;;;;;;9.45;2.92;;;;;;;5.24;100.00;97722.81;4967734;28;20042;-72
2023/11/04 05:45:45;;;;;;;8.05;3.40;;;;;;;5.26;100.00;97739.25;4951962;28;20022;-72
2023/11/04 05:48:10;;;;;;;11.57;3.33;;;;;;;5.24;100.00;97729.91;4967459;28;20074;-73
2023/11/04 05:50:36;;;;;;;8.60;2.63;;;;;;;5.24;100.00;97733.38;4969155;28;20048;-73
2023/11/04 05:53:02;;;;;;;6.10;2.67;;;;;;;5.11;100.00;97728.06;4967838;28;20038;-72
2023/11/04 05:55:28;;;;;;;13.40;3.55;;;;;;;5.13;100.00;97746.38;4967923;28;20058;-72
2023/11/04 05:57:54;;;;;;;4.68;2.38;;;;;;;5.02;100.00;97740.66;4968685;28;20062;-73
2023/11/04 06:00:20;;;;;;;7.65;2.40;;;;;;;5.12;100.00;97763.25;4966873;28;20035;-73
2023/11/04 06:02:45;;;;;;;7.80;2.27;;;;;;;5.10;100.00;97767.94;4967931;28;20031;-73
2023/11/04 06:05:13;;;;;;;4.67;2.17;;;;;;;5.07;100.00;97743.50;4968927;28;20286;-73
2023/11/04 06:07:39;;;;;;;4.13;2.03;;;;;;;5.03;100.00;97742.31;4968590;28;20290;-75
2023/11/04 06:10:08;;;;;;;4.75;2.47;;;;;;;4.91;100.00;97724.56;4983759;28;20035;-72
2023/11/04 06:12:36;;;;;;;5.78;2.58;;;;;;;4.90;100.00;97738.81;4983804;28;20034;-73
2023/11/04 06:15:03;;;;;;;5.25;2.47;;;;;;;4.96;100.00;97759.97;4967220;28;20506;-72
2023/11/04 06:17:28;;;;;;;8.90;2.85;;;;;;;4.94;100.00;97758.53;4967195;28;20034;-72
2023/11/04 06:19:54;;;;;;;8.05;2.47;;;;;;;4.89;100.00;97767.06;4967401;28;20041;-72
2023/11/04 06:22:20;;;;;;;7.05;2.15;;;;;;;4.85;100.00;97761.38;4968592;28;20027;-73
2023/11/04 06:24:45;;;;;;;6.80;2.60;;;;;;;4.92;100.00;97764.03;4968811;28;20027;-72
2023/11/04 06:27:10;;;;;;;16.50;3.50;;;;;;;4.79;100.00;97753.41;4968311;28;20027;-72
2023/11/04 06:29:36;;;;;;;10.53;2.17;;;;;;;4.82;100.00;97753.00;4968606;28;20286;-72
2023/11/04 06:32:01;;;;;;;6.00;2.87;;;;;;;4.75;100.00;97762.75;4967266;28;20134;-73
2023/11/04 06:34:26;;;;;;;5.77;2.00;;;;;;;4.81;100.00;97770.69;4967188;28;20070;-72
2023/11/04 06:36:52;;;;;;;3.03;1.97;;;;;;;4.95;100.00;97782.13;4983244;28;20039;-73
2023/11/04 06:39:18;;;;;;;6.30;2.20;;;;;;;4.84;100.00;97757.06;4967125;28;20042;-73
2023/11/04 06:41:43;;;;;;;7.00;2.80;;;;;;;5.00;100.00;97774.41;4966681;28;20027;-72
2023/11/04 06:44:09;;;;;;;4.75;2.38;;;;;;;4.85;100.00;97737.56;4968283;28;20045;-73
2023/11/04 06:46:34;;;;;;;4.97;2.22;;;;;;;4.87;100.00;97755.88;4967108;28;20034;-72
2023/11/04 06:49:00;;;;;;;4.93;2.50;;;;;;;4.92;100.00;97753.47;4967083;28;20035;-72
2023/11/04 06:51:26;;;;;;;3.47;2.00;;;;;;;4.89;100.00;97761.75;4968176;28;20347;-73
2023/11/04 06:53:53;;;;;;;;;;;;;;;4.84;100.00;97746.50;4968835;28;20043;-73
2023/11/04 06:56:20;;;;;;;11.25;2.85;;;;;;;4.93;100.00;97762.19;4968046;28;20006;-73
2023/11/04 06:58:45;;;;;;;3.95;1.77;;;;;;;5.05;100.00;97761.41;4966873;28;20072;-72
2023/11/04 07:01:17;;;;;;;7.70;2.50;;;;;;;5.15;100.00;97754.91;4966873;28;20042;-72
2023/11/04 07:03:42;;;;;;;6.18;1.60;;;;;;;5.21;100.00;97725.03;4968143;28;20492;-73
2023/11/04 07:06:12;;;;;;;5.55;2.42;;;;;;;5.52;100.00;97735.00;4966786;28;20112;-72
2023/11/04 07:08:37;;;;;;;5.90;1.65;;;;;;;5.51;100.00;97693.69;4982832;28;20030;-72
2023/11/04 07:11:03;;;;;;;5.20;1.77;;;;;;;5.66;100.00;97667.00;4966851;28;20407;-72
2023/11/04 07:13:29;;;;;;;7.00;2.00;;;;;;;5.75;100.00;97636.66;4966855;28;20027;-73
2023/11/04 07:15:57;;;;;;;12.73;2.42;;;;;;;5.70;100.00;97576.38;4968097;28;20031;-72
2023/11/04 07:18:23;;;;;;;7.60;2.70;;;;;;;5.91;100.00;97569.19;4966516;28;20399;-72
2023/11/04 07:20:50;;;;;;;6.00;2.05;;;;;;;5.97;100.00;97541.09;4966879;28;20022;-73
2023/11/04 07:23:17;;;;;;;16.20;3.67;;;;;;;5.93;100.00;97493.03;4964678;28;20462;-72
2023/11/04 07:25:43;;;;;;;5.32;1.55;;;;;;;6.04;100.00;97496.84;4982514;28;20031;-73
2023/11/04 07:28:08;;;;;;;8.82;1.50;;;;;;;6.19;100.00;97462.94;4969761;28;20104;-74
2023/11/04 07:30:35;;;;;;;4.20;2.27;;;;;;;6.40;100.00;97487.47;4953588;28;20483;-73
2023/11/04 07:33:01;;;;;;;7.03;1.65;;;;;;;6.43;100.00;97416.28;4966590;28;20682;-73
2023/11/04 07:35:26;;;;;;;4.87;1.90;;;;;;;6.32;100.00;97364.81;4970150;28;20037;-73
2023/11/04 07:37:52;;;;;;;6.77;1.90;;;;;;;6.82;100.00;97403.69;4953502;28;20122;-73
2023/11/04 07:40:17;;;;;;;7.32;2.15;;;;;;;7.04;100.00;97345.69;4969540;28;20078;-73
2023/11/04 07:42:44;;;;;;;4.28;2.20;;;;;;;6.79;100.00;97194.69;4970941;28;20034;-73
2023/11/04 07:45:13;;;;;;;5.43;1.85;;;;;;;7.75;100.00;97263.63;4971097;28;20035;-73
2023/11/04 07:47:39;;;;;;;7.95;1.70;;;;;;;8.16;100.00;97203.47;4962138;28;20122;-73
2023/11/04 07:50:06;;;;;;;4.35;1.75;;;;;;;8.01;100.00;97033.97;4953767;28;20603;-73
2023/11/04 07:52:32;;;;;;;3.88;1.67;;;;;;;7.85;100.00;96960.34;4969605;28;20108;-73
2023/11/04 07:54:57;;;;;;;12.50;1.70;;;;;;;8.08;100.00;97016.03;4985809;28;20476;-73
2023/11/04 07:57:23;;;;;;;5.20;1.40;;;;;;;8.18;100.00;96919.75;4969368;28;20385;-73
2023/11/04 07:59:48;;;;;;;3.67;1.40;;;;;;;7.35;100.00;96852.97;4969415;28;20117;-73
2023/11/04 08:02:14;;;;;;;6.50;1.60;;;;;;;7.84;100.00;96978.09;4969572;28;20027;-73
2023/11/04 08:04:39;;;;;;;5.40;1.50;;;;;;;8.16;100.00;97005.00;4985742;28;20491;-74
2023/11/04 08:07:05;;;;;;;3.90;1.70;;;;;;;9.08;100.00;96888.66;4985438;28;20083;-73
2023/11/04 08:09:30;;;;;;;2.70;1.00;;;;;;;8.82;100.00;96680.06;4969441;28;20130;-73
2023/11/04 08:11:55;;;;;;;5.30;1.50;;;;;;;7.94;100.00;96563.22;4969326;28;20290;-73
2023/11/04 08:14:20;;;;;;;12.60;1.93;;;;;;;8.25;100.00;96721.09;4983098;28;20117;-73
2023/11/04 08:16:46;;;;;;;3.27;1.33;;;;;;;8.80;100.00;96712.25;4970342;28;20026;-74
2023/11/04 08:19:11;;;;;;;5.17;1.60;;;;;;;9.52;100.00;96944.56;4968964;28;20039;-74
2023/11/04 08:21:36;;;;;;;2.97;1.10;;;;;;;10.00;100.00;96742.31;4966333;28;20023;-73
2023/11/04 08:24:02;;;;;;;2.47;1.37;;;;;;;10.22;100.00;96617.69;4969036;28;20038;-73
2023/11/04 08:26:27;;;;;;;4.60;1.27;;;;;;;9.04;100.00;96214.47;4968909;28;20109;-73
2023/11/04 08:28:53;;;;;;;5.90;1.33;;;;;;;7.99;100.00;96428.59;4969319;28;20286;-73
2023/11/04 08:31:19;;;;;;;7.80;1.50;;;;;;;7.32;100.00;96625.25;4970089;28;20108;-73
2023/11/04 08:33:44;;;;;;;3.10;1.40;;;;;;;7.09;100.00;96794.13;4970234;28;20113;-72
2023/11/04 08:36:10;;;;;;;5.47;1.40;;;;;;;7.21;100.00;96969.19;4970287;28;20055;-73
2023/11/04 08:38:36;;;;;;;6.00;1.80;;;;;;;7.30;100.00;97046.56;4969751;28;20289;-74
2023/11/04 08:41:02;;;;;;;3.90;1.35;;;;;;;7.08;100.00;97028.56;4984765;28;20447;-73
2023/11/04 08:43:28;;;;;;;2.55;1.52;;;;;;;6.86;100.00;97091.97;4970033;28;20062;-73
2023/11/04 08:45:53;;;;;;;3.58;1.40;;;;;;;6.78;100.00;97155.13;4970023;28;20062;-73
2023/11/04 08:48:18;;;;;;;5.90;1.63;;;;;;;6.96;100.00;97245.22;4969828;28;20031;-73
2023/11/04 08:50:44;;;;;;;6.10;1.57;;;;;;;6.98;100.00;97248.47;4969652;28;20042;-74
2023/11/04 08:53:09;;;;;;;4.67;1.10;;;;;;;6.95;100.00;97288.69;4968638;28;20286;-73
2023/11/04 08:55:35;;;;;;;3.37;1.40;;;;;;;7.25;100.00;97346.25;4969850;28;20059;-73
2023/11/04 08:58:00;;;;;;;10.03;2.03;;;;;;;7.12;100.00;97305.59;4979824;28;20274;-73
2023/11/04 09:00:26;;;;;;;6.97;1.92;;;;;;;7.14;100.00;97324.78;4969616;28;20038;-74
2023/11/04 09:02:52;;;;;;;7.00;1.38;;;;;;;7.24;100.00;97329.53;4969686;28;20472;-73
2023/11/04 09:05:17;;;;;;;4.03;1.38;;;;;;;7.16;100.00;97319.22;4968407;28;20113;-73
2023/11/04 09:07:43;;;;;;;5.03;1.37;;;;;;;7.25;100.00;97351.56;4968267;28;20096;-73
2023/11/04 09:10:09;;;;;;;8.18;1.55;;;;;;;7.31;100.00;97332.09;4980716;28;20286;-73
2023/11/04 09:12:35;;;;;;;9.55;2.05;;;;;;;7.19;100.00;97322.25;4952271;28;20130;-73
2023/11/04 09:15:01;;;;;;;3.88;2.00;;;;;;;7.02;100.00;97320.44;4969520;28;20034;-73
2023/11/04 09:17:26;;;;;;;2.75;1.45;;;;;;;6.92;100.00;97328.91;4969387;28;20541;-73
2023/11/04 09:19:52;;;;;;;2.57;1.17;;;;;;;7.04;100.00;97374.06;4984439;28;20035;-73
2023/11/04 09:22:17;;;;;;;7.67;1.90;;;;;;;7.16;100.00;97402.28;4969514;28;20266;-73
2023/11/04 09:24:42;;;;;;;4.57;1.00;;;;;;;7.23;100.00;97391.56;4968162;28;20065;-73
2023/11/04 09:27:08;;;;;;;1.73;1.10;;;;;;;7.45;100.00;97404.41;4949909;28;20104;-73
2023/11/04 09:29:33;;;;;;;6.00;1.95;;;;;;;7.44;100.00;97344.38;4954034;28;20027;-72
2023/11/04 09:31:59;;;;;;;4.90;1.97;;;;;;;7.72;100.00;97407.50;4983377;28;20656;-73
2023/11/04 09:34:24;;;;;;;5.70;1.70;;;;;;;7.60;100.00;97338.44;4982374;28;20039;-73
2023/11/04 09:36:49;;;;;;;6.03;1.73;;;;;;;7.86;100.00;97384.22;4984027;28;20084;-73
2023/11/04 09:39:16;;;;;;;6.23;2.70;;;;;;;8.34;100.00;97445.22;4969174;28;20019;-72
2023/11/04 09:41:41;;;;;;;;;;;;;;;8.22;100.00;97348.72;4969592;28;20472;-73
2023/11/04 09:44:08;;;;;;;5.47;1.45;;;;;;;7.97;100.00;97248.78;4949647;28;20020;-73
2023/11/04 09:46:33;;;;;;;4.53;1.50;;;;;;;7.74;100.00;97256.72;4966947;28;20543;-73
2023/11/04 09:48:59;;;;;;;4.23;1.73;;;;;;;7.45;100.00;97259.22;4967991;28;20043;-72
2023/11/04 09:51:26;;;;;;;3.67;1.00;;;;;;;7.53;100.00;97330.56;4968094;28;20041;-72
2023/11/04 09:53:55;;;;;;;6.55;2.03;;;;;;;7.45;100.00;97336.19;4984084;28;20035;-72
2023/11/04 09:56:22;;;;;;;4.70;1.17;;;;;;;7.67;100.00;97397.53;4951556;28;20019;-73
2023/11/04 09:58:49;;;;;;;4.68;1.33;;;;;;;7.68;100.00;97383.25;4968768;28;20037;-73
2023/11/04 10:01:14;;;;;;;4.40;2.00;;;;;;;7.82;100.00;97381.22;4968601;28;20019;-73
2023/11/04 10:03:40;;;;;;;4.47;1.33;;;;;;;7.92;100.00;97420.50;4969016;28;20041;-72
2023/11/04 10:06:06;;;;;;;5.00;1.93;;;;;;;8.02;100.00;97367.63;4967625;28;20492;-73
2023/11/04 10:08:32;;;;;;;3.75;1.10;;;;;;;8.10;100.00;97393.03;4983424;28;20026;-73
2023/11/04 10:10:58;;;;;;;4.25;1.20;;;;;;;8.15;100.00;97396.66;4967491;28;20540;-73
2023/11/04 10:13:23;;;;;;;2.22;1.20;;;;;;;8.25;100.00;97383.59;4967378;28;20118;-73
2023/11/04 10:15:49;;;;;;;4.33;1.40;;;;;;;8.08;100.00;97320.72;4967579;28;20029;-73
2023/11/04 10:18:15;;;;;;;4.63;1.67;;;;;;;8.39;100.00;97426.72;4983175;28;20472;-73
2023/11/04 10:20:41;;;;;;;13.07;2.28;;;;;;;8.28;100.00;97341.66;4968674;28;20407;-73
2023/11/04 10:23:07;;;;;;;;;;;;;;;8.36;100.00;97387.31;4969240;28;20037;-73
2023/11/04 10:25:32;;;;;;;4.57;1.95;;;;;;;8.17;100.00;97337.94;4968655;28;20008;-73
2023/11/04 10:27:58;;;;;;;7.13;2.00;;;;;;;8.48;100.00;97429.09;4983281;28;20030;-73
2023/11/04 10:30:24;;;;;;;3.15;1.92;;;;;;;8.42;100.00;97415.66;4967309;28;20415;-72
2023/11/04 10:32:52;;;;;;;4.28;1.38;;;;;;;8.31;100.00;97371.25;4951426;28;20035;-73
2023/11/04 10:35:19;;;;;;;1.50;0.98;;;;;;;8.33;100.00;97405.56;4967212;28;20039;-73
2023/11/04 10:37:48;;;;;;;7.82;1.25;;;;;;;8.55;100.00;97438.56;4967106;28;20027;-72
2023/11/04 10:40:14;;;;;;;6.78;1.20;;;;;;;8.45;100.00;97393.09;4968358;28;20479;-73
2023/11/04 10:42:48;;;;;;;3.55;1.40;;;;;;;8.77;100.00;97443.31;4943347;28;20124;-73
2023/11/04 10:45:18;;;;;;;1.75;0.98;;;;;;;8.81;100.00;97391.28;4983399;28;20047;-73
2023/11/04 10:47:54;;;;;;;6.22;1.67;;;;;;;8.80;100.00;97344.41;4962378;28;20523;-73
2023/11/04 10:50:33;;;;;;;3.13;1.90;;;;;;;8.58;100.00;97273.25;4977379;28;20192;-73
2023/11/04 10:53:42;;;;;;;3.30;1.15;;;;;;;8.42;100.00;97258.00;4951002;28;20376;-74
2023/11/04 10:56:15;;;;;;;5.35;1.77;;;;;;;8.31;100.00;97299.50;4964148;28;20038;-74
2023/11/04 10:58:48;;;;;;;3.47;1.50;;;;;;;8.45;100.00;97354.06;4983038;28;20156;-74
2023/11/04 11:01:14;;;;;;;3.55;1.63;;;;;;;8.63;100.00;97381.56;4983106;28;20096;-73
2023/11/04 11:03:41;;;;;;;3.88;1.30;;;;;;;8.53;100.00;97309.56;4953488;28;20483;-73
2023/11/04 11:06:10;;;;;;;4.22;1.60;;;;;;;8.63;100.00;97326.53;4971547;28;20538;-74
2023/11/04 11:08:38;;;;;;;4.88;1.20;;;;;;;8.95;100.00;97355.38;4969772;28;20023;-73
2023/11/04 11:11:11;;;;;;;3.20;1.42;;;;;;;8.90;100.00;97237.41;4970021;28;20035;-73
2023/11/04 11:13:38;;;;;;;4.90;1.83;;;;;;;9.17;100.00;97297.00;4970013;28;20042;-73
2023/11/04 11:16:04;;;;;;;3.47;1.30;;;;;;;9.47;100.00;97299.41;4970023;28;20043;-73
2023/11/04 11:18:30;;;;;;;2.38;1.13;;;;;;;9.46;100.00;97196.63;4969728;28;20134;-74
2023/11/04 11:21:09;;;;;;;7.47;1.42;;;;;;;9.62;100.00;97194.19;4980184;28;20114;-73
2023/11/04 11:23:36;;;;;;;5.82;1.52;;;;;;;9.97;100.00;97276.53;4955812;28;20039;-73
2023/11/04 11:26:06;;;;;;;2.95;1.30;;;;;;;11.04;100.00;97124.22;4970971;28;20084;-73